USRR

Surgut International Airport

Airport
ICAO code
USRR
IATA Code
SGC
Summary
ICAO Region
APAC
ICAO Territory
Location

Kryl'ya Surguta, Khanty-Mansi Autonomous Okrug

Serving
Surgut
Elevation
200 ft
Coordinates
61° 20' 25" N , 73° 24' 28" E
KCC
Metar
USRR 211400Z 03003MPS 360V060 CAVOK 18/07 Q1008 R07/CLRD60 NOSIG RMK QFE751

Airport in Khanty-Mansi Autonomous Okrug, Russia located 10km north of Surgut.

Climatology

Subarctic climate (Köppen climate classification Dec)

Runways

Designator Length Width Surface Rops
7/25 2790 45 ASP Yes/Yes

Airport map

Aerial View

SKYbrary Partners:

Safety knowledge contributed by: